createdAt,value
2018-09-10T00:00:22.837Z,6.70
2018-09-10T00:01:22.837Z,6.80
2018-09-10T00:02:22.835Z,6.90
2018-09-10T00:03:22.839Z,6.10
2018-09-10T00:04:22.831Z,7.70
2018-09-10T00:05:22.830Z,6.30
2018-09-10T00:06:22.831Z,6.70
2018-09-10T00:07:22.826Z,8.20
2018-09-10T00:08:22.825Z,6.50
2018-09-10T00:09:22.822Z,6.60
2018-09-10T00:10:22.822Z,6.80
2018-09-10T00:11:22.820Z,6.40
2018-09-10T00:12:22.818Z,7.40
2018-09-10T00:13:22.815Z,6.30
2018-09-10T00:14:22.817Z,6.20
2018-09-10T00:15:22.812Z,6.00
2018-09-10T00:16:22.811Z,7.70
2018-09-10T00:17:22.809Z,8.70
2018-09-10T00:18:22.809Z,6.60
2018-09-10T00:19:22.804Z,7.30
2018-09-10T00:20:22.805Z,5.80
2018-09-10T00:21:22.802Z,7.00
2018-09-10T00:22:22.802Z,6.80
2018-09-10T00:23:22.798Z,7.20
2018-09-10T00:24:22.796Z,7.80
2018-09-10T00:25:22.794Z,6.30
2018-09-10T00:26:22.799Z,7.40
2018-09-10T00:27:22.791Z,8.60
2018-09-10T00:28:22.787Z,6.30
2018-09-10T00:29:22.788Z,6.00
2018-09-10T00:30:22.787Z,7.00
2018-09-10T00:31:22.782Z,7.00
2018-09-10T00:32:22.783Z,6.50
2018-09-10T00:33:22.780Z,6.80
2018-09-10T00:34:22.779Z,6.40
2018-09-10T00:35:22.784Z,8.40
2018-09-10T00:36:22.776Z,6.80
2018-09-10T00:37:22.773Z,6.60
2018-09-10T00:38:22.773Z,6.10
2018-09-10T00:39:22.768Z,6.20
2018-09-10T00:40:22.765Z,6.30
2018-09-10T00:41:22.767Z,6.40
2018-09-10T00:42:22.768Z,7.30
2018-09-10T00:43:23.567Z,5.70
2018-09-10T00:44:22.762Z,7.40
2018-09-10T00:45:22.758Z,5.60
2018-09-10T00:46:22.756Z,7.60
2018-09-10T00:47:22.763Z,5.20
2018-09-10T00:48:22.752Z,5.90
2018-09-10T00:49:22.749Z,7.00
2018-09-10T00:50:22.753Z,7.00
2018-09-10T00:51:22.741Z,5.70
2018-09-10T00:52:22.744Z,7.30
2018-09-10T00:53:22.751Z,7.40
2018-09-10T00:54:22.740Z,5.80
2018-09-10T00:55:22.743Z,7.10
2018-09-10T00:56:22.734Z,5.20
2018-09-10T00:57:22.734Z,5.40
2018-09-10T00:58:22.733Z,6.00
2018-09-10T00:59:22.729Z,6.90
2018-09-10T01:00:22.727Z,6.60
2018-09-10T01:01:22.725Z,6.20
2018-09-10T01:02:22.724Z,6.60
2018-09-10T01:03:22.721Z,7.60
2018-09-10T01:04:22.715Z,9.40
2018-09-10T01:05:22.719Z,7.90
2018-09-10T01:06:22.717Z,6.90
2018-09-10T01:07:22.711Z,5.60
2018-09-10T01:08:22.714Z,5.90
2018-09-10T01:09:22.710Z,6.10
2018-09-10T01:10:22.706Z,6.70
2018-09-10T01:11:22.704Z,7.00
2018-09-10T01:12:22.704Z,6.50
2018-09-10T01:13:22.699Z,6.80
2018-09-10T01:14:22.693Z,6.60
2018-09-10T01:15:22.695Z,5.90
2018-09-10T01:16:22.692Z,6.40
2018-09-10T01:17:22.689Z,7.10
2018-09-10T01:18:22.690Z,6.00
2018-09-10T01:19:22.686Z,5.90
2018-09-10T01:20:22.684Z,6.30
2018-09-10T01:21:22.683Z,5.30
2018-09-10T01:22:22.683Z,6.10
2018-09-10T01:23:22.678Z,8.40
2018-09-10T01:24:22.677Z,7.70
2018-09-10T01:25:22.672Z,8.10
2018-09-10T01:26:22.672Z,5.90
2018-09-10T01:27:22.669Z,6.20
2018-09-10T01:28:22.666Z,5.90
2018-09-10T01:29:22.662Z,7.50
2018-09-10T01:30:22.660Z,6.30
2018-09-10T01:31:22.658Z,6.90
2018-09-10T01:32:22.656Z,5.90
2018-09-10T01:33:22.654Z,6.10
2018-09-10T01:34:22.654Z,6.20
2018-09-10T01:35:22.649Z,6.10
2018-09-10T01:36:22.647Z,8.40
2018-09-10T01:37:22.644Z,7.20
2018-09-10T01:38:22.642Z,7.10
2018-09-10T01:39:22.640Z,6.90
2018-09-10T01:40:22.637Z,6.50
2018-09-10T01:41:22.634Z,5.80
2018-09-10T01:42:22.633Z,8.00
2018-09-10T01:43:22.629Z,6.60
2018-09-10T01:44:22.626Z,6.70
2018-09-10T01:45:22.626Z,6.20
2018-09-10T01:46:22.623Z,5.70
2018-09-10T01:47:22.621Z,5.70
2018-09-10T01:48:22.620Z,5.70
2018-09-10T01:49:22.614Z,6.50
2018-09-10T01:50:22.614Z,6.50
2018-09-10T01:51:22.612Z,7.20
2018-09-10T01:52:22.607Z,7.10
2018-09-10T01:53:22.605Z,5.90
2018-09-10T01:54:22.606Z,6.50
2018-09-10T01:55:22.607Z,7.00
2018-09-10T01:56:22.598Z,6.70
2018-09-10T01:57:22.599Z,6.50
2018-09-10T01:58:22.598Z,5.90
2018-09-10T01:59:22.590Z,7.60
2018-09-10T02:00:22.594Z,5.90
2018-09-10T02:01:22.586Z,6.60
2018-09-10T02:02:22.584Z,6.60
2018-09-10T02:03:22.586Z,5.60
2018-09-10T02:04:22.576Z,6.40
2018-09-10T02:05:22.577Z,6.80
2018-09-10T02:06:22.575Z,6.40
2018-09-10T02:07:22.575Z,5.90
2018-09-10T02:08:22.567Z,8.00
2018-09-10T02:09:22.611Z,5.50
2018-09-10T02:10:22.564Z,8.20
2018-09-10T02:11:22.558Z,7.60
2018-09-10T02:12:22.560Z,6.50
2018-09-10T02:13:22.555Z,5.90
2018-09-10T02:14:22.553Z,6.20
2018-09-10T02:15:22.551Z,7.40
2018-09-10T02:16:22.549Z,6.00
2018-09-10T02:17:22.557Z,5.70
2018-09-10T02:18:22.545Z,7.10
2018-09-10T02:19:22.547Z,8.20
2018-09-10T02:20:22.626Z,7.80
2018-09-10T02:21:22.538Z,9.00
2018-09-10T02:22:22.530Z,8.00
2018-09-10T02:23:22.532Z,8.20
2018-09-10T02:24:22.533Z,6.80
2018-09-10T02:25:22.528Z,7.50
2018-09-10T02:26:22.526Z,8.10
2018-09-10T02:27:22.585Z,6.60
2018-09-10T02:28:22.522Z,8.30
2018-09-10T02:29:22.546Z,6.90
2018-09-10T02:30:22.517Z,6.60
2018-09-10T02:31:22.518Z,7.00
2018-09-10T02:32:22.511Z,8.20
2018-09-10T02:33:22.508Z,7.80
2018-09-10T02:34:22.507Z,7.30
2018-09-10T02:35:22.504Z,8.10
2018-09-10T02:36:22.505Z,9.40
2018-09-10T02:37:22.500Z,8.90
2018-09-10T02:38:22.533Z,6.40
2018-09-10T02:39:22.495Z,9.10
2018-09-10T02:40:22.494Z,6.70
2018-09-10T02:41:22.500Z,7.40
2018-09-10T02:42:22.490Z,12.20
2018-09-10T02:43:22.487Z,6.90
2018-09-10T02:44:22.483Z,7.80
2018-09-10T02:45:22.487Z,8.00
2018-09-10T02:46:22.484Z,10.10
2018-09-10T02:47:22.477Z,7.80
2018-09-10T02:48:22.479Z,7.30
2018-09-10T02:49:22.477Z,8.30
2018-09-10T02:50:22.471Z,7.70
2018-09-10T02:51:22.471Z,6.80
2018-09-10T02:52:22.466Z,6.10
2018-09-10T02:53:22.462Z,7.10
2018-09-10T02:54:22.464Z,6.80
2018-09-10T02:55:22.461Z,7.50
2018-09-10T02:56:22.455Z,7.90
2018-09-10T02:57:22.456Z,7.70
2018-09-10T02:58:22.452Z,10.80
2018-09-10T02:59:22.451Z,6.80
2018-09-10T03:00:22.451Z,8.00
2018-09-10T03:01:22.447Z,8.30
2018-09-10T03:02:22.445Z,7.50
2018-09-10T03:03:22.447Z,9.50
2018-09-10T03:04:22.444Z,7.40
2018-09-10T03:05:22.438Z,8.70
2018-09-10T03:06:22.436Z,7.70
2018-09-10T03:07:22.434Z,8.00
2018-09-10T03:08:22.434Z,8.30
2018-09-10T03:09:22.429Z,8.40
2018-09-10T03:10:22.442Z,6.70
2018-09-10T03:11:22.425Z,8.00
2018-09-10T03:12:22.422Z,7.60
2018-09-10T03:13:23.036Z,8.50
2018-09-10T03:14:22.424Z,8.80
2018-09-10T03:15:22.426Z,7.40
2018-09-10T03:16:22.414Z,7.90
2018-09-10T03:17:22.412Z,7.10
2018-09-10T03:18:22.411Z,6.90
2018-09-10T03:19:22.403Z,8.50
2018-09-10T03:20:22.408Z,9.40
2018-09-10T03:21:22.405Z,7.90
2018-09-10T03:22:22.402Z,8.00
2018-09-10T03:23:22.395Z,7.70
2018-09-10T03:24:22.397Z,6.90
2018-09-10T03:25:22.395Z,8.90
2018-09-10T03:26:22.397Z,6.50
2018-09-10T03:27:22.394Z,7.90
2018-09-10T03:28:22.386Z,8.00
2018-09-10T03:29:22.384Z,7.70
2018-09-10T03:30:22.384Z,8.70
2018-09-10T03:31:22.380Z,8.70
2018-09-10T03:32:22.378Z,6.80
2018-09-10T03:33:22.415Z,7.60
2018-09-10T03:34:22.373Z,8.20
2018-09-10T03:35:22.371Z,6.90
2018-09-10T03:36:22.385Z,6.60
2018-09-10T03:37:22.370Z,8.40
2018-09-10T03:38:22.376Z,7.50
2018-09-10T03:39:22.365Z,7.30
2018-09-10T03:40:22.359Z,9.00
2018-09-10T03:41:22.358Z,7.90
2018-09-10T03:42:22.353Z,7.10
2018-09-10T03:43:22.351Z,9.50
2018-09-10T03:44:22.356Z,8.20
2018-09-10T03:45:22.349Z,8.20
2018-09-10T03:46:22.347Z,7.40
2018-09-10T03:47:22.481Z,8.10
2018-09-10T03:48:22.342Z,7.70
2018-09-10T03:49:22.340Z,7.40
2018-09-10T03:50:22.335Z,7.90
2018-09-10T03:51:22.335Z,9.50
2018-09-10T03:52:22.332Z,7.70
2018-09-10T03:53:22.329Z,7.70
2018-09-10T03:54:22.328Z,7.50
2018-09-10T03:55:22.321Z,7.00
2018-09-10T03:56:22.328Z,7.80
2018-09-10T03:57:22.321Z,7.80
2018-09-10T03:58:22.315Z,7.70
2018-09-10T03:59:22.313Z,8.30
2018-09-10T04:00:22.311Z,8.10
2018-09-10T04:01:22.314Z,7.50
2018-09-10T04:02:22.307Z,7.70
2018-09-10T04:03:22.307Z,9.00
2018-09-10T04:04:22.301Z,7.70
2018-09-10T04:05:22.300Z,8.70
2018-09-10T04:06:22.300Z,7.80
2018-09-10T04:07:22.293Z,7.60
2018-09-10T04:08:22.296Z,8.70
2018-09-10T04:09:22.293Z,7.70
2018-09-10T04:10:22.294Z,8.60
2018-09-10T04:11:22.284Z,7.60
2018-09-10T04:12:22.283Z,8.30
2018-09-10T04:13:22.281Z,8.70
2018-09-10T04:14:22.277Z,7.90
2018-09-10T04:15:22.274Z,8.40
2018-09-10T04:16:22.272Z,8.20
2018-09-10T04:17:22.340Z,9.80
2018-09-10T04:18:22.268Z,8.10
2018-09-10T04:19:22.275Z,7.90
2018-09-10T04:20:22.261Z,9.90
2018-09-10T04:21:22.264Z,10.00
2018-09-10T04:22:22.261Z,8.40
2018-09-10T04:23:22.254Z,8.50
2018-09-10T04:24:22.251Z,8.70
2018-09-10T04:25:22.254Z,10.80
2018-09-10T04:26:22.249Z,8.70
2018-09-10T04:27:22.245Z,8.00
2018-09-10T04:28:22.244Z,7.60
2018-09-10T04:29:22.240Z,7.30
2018-09-10T04:30:22.240Z,9.50
2018-09-10T04:31:22.236Z,8.00
2018-09-10T04:32:22.232Z,8.10
2018-09-10T04:33:22.231Z,8.00
2018-09-10T04:34:22.233Z,7.00
2018-09-10T04:35:22.226Z,6.80
2018-09-10T04:36:22.228Z,7.70
2018-09-10T04:37:22.225Z,7.00
2018-09-10T04:38:22.216Z,7.50
2018-09-10T04:39:22.217Z,8.00
2018-09-10T04:40:22.211Z,8.90
2018-09-10T04:41:22.212Z,7.30
2018-09-10T04:42:22.217Z,7.20
2018-09-10T04:43:22.207Z,9.20
2018-09-10T04:44:22.203Z,9.70
2018-09-10T04:45:22.202Z,7.70
2018-09-10T04:46:22.199Z,9.00
2018-09-10T04:47:22.198Z,7.80
2018-09-10T04:48:22.189Z,7.20
2018-09-10T04:49:22.192Z,8.90
2018-09-10T04:50:22.190Z,8.80
2018-09-10T04:51:22.193Z,8.10
2018-09-10T04:52:22.191Z,8.40
2018-09-10T04:53:22.182Z,8.70
2018-09-10T04:54:22.179Z,8.00
2018-09-10T04:55:22.181Z,7.90
2018-09-10T04:56:22.171Z,8.80
2018-09-10T04:57:22.172Z,7.80
2018-09-10T04:58:22.170Z,8.70
2018-09-10T04:59:22.169Z,8.60
2018-09-10T05:00:22.161Z,8.20
2018-09-10T05:01:22.162Z,7.20
2018-09-10T05:02:22.161Z,8.80
2018-09-10T05:03:22.155Z,8.90
2018-09-10T05:04:22.182Z,8.80
2018-09-10T05:05:22.154Z,8.00
2018-09-10T05:06:22.152Z,9.30
2018-09-10T05:07:22.147Z,8.80
2018-09-10T05:08:22.162Z,8.60
2018-09-10T05:09:22.142Z,7.30
2018-09-10T05:10:22.139Z,8.00
2018-09-10T05:11:22.136Z,8.00
2018-09-10T05:12:22.139Z,8.90
2018-09-10T05:13:22.136Z,6.30
2018-09-10T05:14:22.134Z,7.90
2018-09-10T05:15:22.132Z,7.50
2018-09-10T05:16:22.126Z,8.20
2018-09-10T05:17:22.137Z,8.80
2018-09-10T05:18:22.133Z,7.70
2018-09-10T05:19:22.119Z,8.90
2018-09-10T05:20:22.115Z,7.90
2018-09-10T05:21:22.115Z,7.40
2018-09-10T05:22:22.114Z,7.20
2018-09-10T05:23:22.110Z,8.40
2018-09-10T05:24:22.109Z,8.30
2018-09-10T05:25:22.106Z,7.50
2018-09-10T05:26:22.105Z,8.40
2018-09-10T05:27:22.104Z,8.70
2018-09-10T05:28:22.104Z,9.10
2018-09-10T05:29:22.100Z,8.30
2018-09-10T05:30:22.095Z,7.90
2018-09-10T05:31:22.092Z,10.40
2018-09-10T05:32:22.091Z,8.40
2018-09-10T05:33:22.090Z,10.40
2018-09-10T05:34:22.092Z,13.00
2018-09-10T05:35:22.085Z,10.30
2018-09-10T05:36:22.083Z,8.30
2018-09-10T05:37:22.080Z,9.00
2018-09-10T05:38:22.086Z,10.70
2018-09-10T05:39:22.077Z,10.60
2018-09-10T05:40:22.077Z,8.50
2018-09-10T05:41:22.076Z,9.60
2018-09-10T05:42:22.069Z,9.30
2018-09-10T05:43:22.065Z,11.30
2018-09-10T05:44:22.069Z,8.50
2018-09-10T05:45:22.070Z,9.60
2018-09-10T05:46:22.071Z,8.60
2018-09-10T05:47:22.076Z,9.00
2018-09-10T05:48:22.065Z,9.40
2018-09-10T05:49:22.065Z,9.20
2018-09-10T05:50:22.058Z,7.60
2018-09-10T05:51:22.054Z,9.50
2018-09-10T05:52:22.054Z,8.00
2018-09-10T05:53:22.114Z,8.90
2018-09-10T05:54:22.052Z,8.80
2018-09-10T05:55:22.109Z,9.00
2018-09-10T05:56:22.049Z,8.20
2018-09-10T05:57:22.044Z,8.30
2018-09-10T05:58:22.041Z,6.90
2018-09-10T05:59:22.043Z,7.70
2018-09-10T06:00:22.044Z,9.00
2018-09-10T06:01:22.043Z,8.70
2018-09-10T06:02:22.041Z,9.50
2018-09-10T06:03:22.045Z,7.60
2018-09-10T06:04:22.037Z,8.10
2018-09-10T06:05:22.037Z,9.20
2018-09-10T06:06:22.042Z,9.90
2018-09-10T06:07:22.035Z,8.10
2018-09-10T06:08:22.036Z,8.50
2018-09-10T06:09:22.035Z,6.30
2018-09-10T06:10:22.051Z,6.90
2018-09-10T06:11:22.027Z,8.00
2018-09-10T06:12:22.032Z,9.50
2018-09-10T06:13:22.032Z,9.90
2018-09-10T06:14:22.033Z,8.40
2018-09-10T06:15:22.031Z,9.80
2018-09-10T06:16:22.034Z,7.40
2018-09-10T06:17:22.032Z,8.80
2018-09-10T06:18:22.032Z,8.60
2018-09-10T06:19:22.032Z,9.50
2018-09-10T06:20:22.035Z,9.00
2018-09-10T06:21:22.038Z,7.90
2018-09-10T06:22:22.032Z,7.90
2018-09-10T06:23:22.037Z,9.40
2018-09-10T06:24:22.036Z,7.10
2018-09-10T06:25:22.038Z,8.00
2018-09-10T06:26:22.039Z,6.90
2018-09-10T06:27:22.042Z,6.90
2018-09-10T06:28:22.037Z,6.80
2018-09-10T06:29:22.042Z,8.60
2018-09-10T06:30:22.123Z,8.70
2018-09-10T06:31:22.048Z,6.20
2018-09-10T06:32:22.050Z,7.50
2018-09-10T06:33:22.051Z,6.20
2018-09-10T06:34:22.055Z,7.10
2018-09-10T06:35:22.055Z,5.50
2018-09-10T06:36:22.056Z,6.20
2018-09-10T06:37:22.061Z,7.00
2018-09-10T06:38:22.060Z,5.50
2018-09-10T06:39:22.066Z,6.80
2018-09-10T06:40:22.066Z,6.10
2018-09-10T06:41:22.065Z,6.00
2018-09-10T06:42:22.066Z,6.50
2018-09-10T06:43:22.068Z,5.40
2018-09-10T06:44:22.073Z,6.90
2018-09-10T06:45:22.073Z,6.90
2018-09-10T06:46:22.073Z,7.10
2018-09-10T06:47:22.074Z,6.70
2018-09-10T06:48:22.593Z,9.50
2018-09-10T06:49:22.079Z,6.10
2018-09-10T06:50:22.599Z,6.90
2018-09-10T06:51:22.081Z,7.00
2018-09-10T06:52:22.084Z,8.50
2018-09-10T06:53:22.120Z,5.60
2018-09-10T06:54:22.090Z,7.60
2018-09-10T06:55:22.089Z,6.50
2018-09-10T06:56:22.089Z,7.20
2018-09-10T06:57:22.088Z,8.70
2018-09-10T06:58:22.095Z,6.70
2018-09-10T06:59:22.097Z,4.90
2018-09-10T07:00:22.182Z,3.60
2018-09-10T07:01:22.112Z,4.50
2018-09-10T07:02:22.102Z,5.70
2018-09-10T07:03:22.102Z,7.00
2018-09-10T07:04:22.107Z,7.20
2018-09-10T07:05:22.107Z,6.10
2018-09-10T07:06:22.176Z,5.80
2018-09-10T07:07:22.113Z,4.20
2018-09-10T07:08:22.115Z,4.20
2018-09-10T07:09:22.118Z,4.90
2018-09-10T07:10:22.117Z,4.50
2018-09-10T07:11:22.123Z,4.90
2018-09-10T07:12:22.127Z,5.80
2018-09-10T07:13:22.130Z,4.20
2018-09-10T07:14:22.137Z,4.80
2018-09-10T07:15:22.136Z,4.50
2018-09-10T07:16:22.136Z,4.90
2018-09-10T07:17:22.142Z,7.50
2018-09-10T07:18:22.145Z,5.00
2018-09-10T07:19:22.149Z,3.20
2018-09-10T07:20:22.154Z,4.50
2018-09-10T07:21:22.156Z,3.80
2018-09-10T07:22:22.156Z,5.40
2018-09-10T07:23:22.159Z,4.40
2018-09-10T07:24:22.162Z,5.00
2018-09-10T07:25:22.166Z,6.50
2018-09-10T07:26:22.166Z,4.30
2018-09-10T07:27:22.168Z,4.30
2018-09-10T07:28:22.173Z,7.10
2018-09-10T07:29:22.260Z,6.70
2018-09-10T07:30:22.180Z,5.10
2018-09-10T07:31:22.180Z,6.60
2018-09-10T07:32:22.194Z,5.20
2018-09-10T07:33:22.189Z,5.10
2018-09-10T07:34:22.196Z,3.70
2018-09-10T07:35:22.204Z,4.50
2018-09-10T07:36:22.197Z,5.70
2018-09-10T07:37:22.202Z,4.40
2018-09-10T07:38:22.206Z,6.10
2018-09-10T07:39:22.211Z,3.80
2018-09-10T07:40:22.210Z,3.90
2018-09-10T07:41:22.304Z,4.50
2018-09-10T07:42:22.216Z,5.10
2018-09-10T07:43:23.205Z,3.30
2018-09-10T07:44:22.221Z,3.80
2018-09-10T07:45:22.226Z,5.10
2018-09-10T07:46:22.226Z,4.80
2018-09-10T07:47:22.230Z,5.60
2018-09-10T07:48:22.232Z,4.90
2018-09-10T07:49:22.239Z,4.90
2018-09-10T07:50:22.241Z,6.30
2018-09-10T07:51:22.240Z,4.20
2018-09-10T07:52:22.244Z,6.30
2018-09-10T07:53:22.250Z,6.70
2018-09-10T07:54:22.272Z,5.10
2018-09-10T07:55:22.508Z,2.80
2018-09-10T07:56:22.256Z,7.60
2018-09-10T07:57:22.379Z,5.50
2018-09-10T07:58:22.261Z,5.10
2018-09-10T07:59:22.261Z,3.90
2018-09-10T08:00:22.264Z,4.20
2018-09-10T08:01:22.317Z,4.20
2018-09-10T08:02:22.274Z,4.00
2018-09-10T08:03:22.277Z,4.40
2018-09-10T08:04:22.275Z,6.20
2018-09-10T08:05:22.283Z,8.60
2018-09-10T08:06:22.308Z,8.40
2018-09-10T08:07:22.295Z,4.90
2018-09-10T08:08:22.291Z,6.20
2018-09-10T08:09:22.389Z,4.00
2018-09-10T08:10:22.304Z,4.90
2018-09-10T08:11:22.302Z,3.60
2018-09-10T08:12:22.304Z,3.40
2018-09-10T08:13:22.362Z,5.70
2018-09-10T08:14:22.310Z,3.90
2018-09-10T08:15:22.312Z,4.50
2018-09-10T08:16:22.317Z,3.80
2018-09-10T08:17:22.321Z,5.10
2018-09-10T08:18:22.324Z,4.50
2018-09-10T08:19:22.327Z,5.80
2018-09-10T08:20:22.332Z,3.80
2018-09-10T08:21:22.335Z,3.50
2018-09-10T08:22:22.500Z,3.10
2018-09-10T08:23:22.340Z,4.30
2018-09-10T08:24:22.456Z,2.60
2018-09-10T08:25:22.348Z,3.50
2018-09-10T08:26:23.203Z,2.00
2018-09-10T08:27:23.142Z,3.70
2018-09-10T08:28:22.362Z,3.60
2018-09-10T08:29:22.361Z,5.10
2018-09-10T08:30:22.419Z,3.00
2018-09-10T08:31:22.654Z,3.20
2018-09-10T08:32:22.370Z,4.00
2018-09-10T08:33:22.373Z,2.90
2018-09-10T08:34:22.392Z,4.40
2018-09-10T08:35:22.381Z,3.90
2018-09-10T08:36:22.448Z,3.20
2018-09-10T08:37:22.604Z,2.70
2018-09-10T08:38:22.397Z,2.90
2018-09-10T08:39:22.462Z,4.00
2018-09-10T08:40:22.400Z,2.70
2018-09-10T08:41:22.403Z,4.00
2018-09-10T08:42:22.408Z,2.80
2018-09-10T08:43:22.413Z,3.00
2018-09-10T08:44:22.411Z,2.90
2018-09-10T08:45:22.419Z,4.50
2018-09-10T08:46:22.423Z,3.50
2018-09-10T08:47:22.431Z,4.00
2018-09-10T08:48:22.524Z,3.50
2018-09-10T08:49:22.434Z,3.60
2018-09-10T08:50:22.447Z,6.50
2018-09-10T08:51:22.462Z,3.30
2018-09-10T08:52:22.446Z,3.20
2018-09-10T08:53:22.453Z,2.40
2018-09-10T08:54:22.492Z,2.20
2018-09-10T08:55:22.571Z,2.40
2018-09-10T08:56:22.541Z,3.80
2018-09-10T08:57:22.467Z,2.00
2018-09-10T08:58:22.483Z,3.00
2018-09-10T08:59:22.472Z,2.90
2018-09-10T09:00:22.511Z,2.50
2018-09-10T09:01:22.480Z,2.80
2018-09-10T09:02:22.486Z,3.50
2018-09-10T09:03:23.163Z,2.70
2018-09-10T09:04:22.493Z,2.60
2018-09-10T09:05:22.499Z,5.00
2018-09-10T09:06:22.561Z,2.80
2018-09-10T09:07:23.220Z,4.00
2018-09-10T09:08:22.517Z,4.10
2018-09-10T09:09:22.516Z,4.10
2018-09-10T09:10:22.521Z,3.90
2018-09-10T09:11:22.570Z,1.70
2018-09-10T09:12:22.526Z,1.60
2018-09-10T09:13:22.619Z,1.50
2018-09-10T09:14:22.556Z,3.40
2018-09-10T09:15:22.638Z,2.30
2018-09-10T09:16:22.640Z,2.20
2018-09-10T09:17:22.575Z,2.10
2018-09-10T09:18:22.554Z,3.60
2018-09-10T09:19:22.558Z,3.30
2018-09-10T09:20:22.564Z,2.70
2018-09-10T09:21:22.641Z,2.70
2018-09-10T09:22:22.575Z,1.80
2018-09-10T09:23:22.601Z,5.10
2018-09-10T09:24:22.880Z,3.00
2018-09-10T09:25:22.589Z,2.50
2018-09-10T09:26:22.594Z,2.60
2018-09-10T09:27:22.594Z,2.30
2018-09-10T09:28:22.598Z,2.80
2018-09-10T09:29:22.607Z,3.30
2018-09-10T09:30:22.781Z,2.60
2018-09-10T09:31:22.613Z,4.80
2018-09-10T09:32:22.617Z,2.40
2018-09-10T09:33:22.620Z,3.90
2018-09-10T09:34:22.624Z,3.00
2018-09-10T09:35:22.630Z,2.00
2018-09-10T09:36:22.740Z,2.10
2018-09-10T09:37:22.642Z,3.10
2018-09-10T09:38:22.649Z,2.30
2018-09-10T09:39:22.649Z,3.30
2018-09-10T09:40:22.655Z,2.30
2018-09-10T09:41:22.661Z,3.40
2018-09-10T09:42:22.667Z,3.10
2018-09-10T09:43:22.677Z,3.50
2018-09-10T09:44:22.675Z,2.60
2018-09-10T09:45:22.679Z,3.20
2018-09-10T09:46:22.686Z,3.30
2018-09-10T09:47:22.689Z,2.40
2018-09-10T09:48:22.686Z,1.60
2018-09-10T09:49:22.882Z,2.20
2018-09-10T09:50:22.747Z,2.30
2018-09-10T09:51:22.701Z,3.20
2018-09-10T09:52:22.800Z,2.30
2018-09-10T09:53:22.727Z,2.40
2018-09-10T09:54:23.339Z,4.60
2018-09-10T09:55:23.180Z,1.70
2018-09-10T09:56:22.728Z,2.70
2018-09-10T09:57:22.729Z,1.90
2018-09-10T09:58:22.735Z,4.10
2018-09-10T09:59:22.738Z,2.70
2018-09-10T10:00:22.742Z,3.70
2018-09-10T10:01:22.755Z,3.00
2018-09-10T10:02:22.753Z,3.60
2018-09-10T10:03:22.756Z,2.70
2018-09-10T10:04:22.778Z,3.60
2018-09-10T10:05:22.765Z,4.80
2018-09-10T10:06:22.771Z,3.10
2018-09-10T10:07:23.016Z,3.30
2018-09-10T10:08:22.779Z,3.50
2018-09-10T10:09:22.785Z,2.70
2018-09-10T10:10:22.829Z,2.30
2018-09-10T10:11:22.910Z,2.30
2018-09-10T10:12:22.941Z,3.00
2018-09-10T10:13:22.813Z,6.10
2018-09-10T10:14:22.808Z,3.80
2018-09-10T10:15:22.813Z,4.40
2018-09-10T10:16:22.844Z,4.80
2018-09-10T10:17:22.822Z,4.10
2018-09-10T10:18:22.850Z,4.70
2018-09-10T10:19:22.858Z,2.60
2018-09-10T10:20:22.834Z,3.30
2018-09-10T10:21:22.836Z,3.40
2018-09-10T10:22:22.844Z,3.20
2018-09-10T10:23:22.848Z,3.90
2018-09-10T10:24:22.898Z,5.20
2018-09-10T10:25:22.908Z,3.70
2018-09-10T10:26:22.861Z,2.40
2018-09-10T10:27:22.871Z,2.80
2018-09-10T10:28:23.029Z,3.70
2018-09-10T10:29:22.876Z,3.10
2018-09-10T10:30:22.879Z,3.00
2018-09-10T10:31:22.887Z,2.20
2018-09-10T10:32:22.888Z,2.60
2018-09-10T10:33:22.892Z,2.90
2018-09-10T10:34:22.896Z,4.00
2018-09-10T10:35:22.909Z,3.40
2018-09-10T10:36:22.905Z,3.00
2018-09-10T10:37:22.909Z,1.70
2018-09-10T10:38:23.137Z,3.50
2018-09-10T10:39:22.961Z,3.60
2018-09-10T10:40:22.926Z,2.70
2018-09-10T10:41:23.040Z,2.00
2018-09-10T10:42:22.939Z,2.60
2018-09-10T10:43:22.942Z,3.00
2018-09-10T10:44:22.948Z,3.50
2018-09-10T10:45:22.957Z,3.90
2018-09-10T10:46:22.956Z,2.70
2018-09-10T10:47:23.012Z,3.80
2018-09-10T10:48:22.965Z,1.80
2018-09-10T10:49:22.973Z,1.80
2018-09-10T10:50:23.155Z,2.80
2018-09-10T10:51:22.976Z,3.40
2018-09-10T10:52:22.983Z,3.20
2018-09-10T10:53:22.986Z,3.60
2018-09-10T10:54:22.996Z,3.20
2018-09-10T10:55:22.999Z,3.80
2018-09-10T10:56:23.091Z,3.30
2018-09-10T10:57:23.707Z,4.60
2018-09-10T10:58:23.011Z,6.10
2018-09-10T10:59:23.017Z,4.20
2018-09-10T11:00:23.023Z,3.20
2018-09-10T11:01:23.027Z,3.20
2018-09-10T11:02:23.034Z,3.30
2018-09-10T11:03:23.037Z,3.90
2018-09-10T11:04:23.042Z,3.30
2018-09-10T11:05:23.049Z,6.40
2018-09-10T11:06:23.053Z,2.40
2018-09-10T11:07:23.061Z,3.20
2018-09-10T11:08:23.066Z,3.60
2018-09-10T11:09:23.063Z,3.30
2018-09-10T11:10:23.070Z,3.10
2018-09-10T11:11:23.591Z,2.40
2018-09-10T11:12:23.147Z,2.60
2018-09-10T11:13:23.295Z,2.20
2018-09-10T11:14:23.609Z,1.80
2018-09-10T11:15:23.281Z,2.80
2018-09-10T11:16:23.126Z,2.90
2018-09-10T11:17:23.390Z,3.00
2018-09-10T11:18:23.921Z,3.60
2018-09-10T11:19:23.301Z,1.90
2018-09-10T11:20:23.420Z,2.50
2018-09-10T11:21:23.189Z,3.00
2018-09-10T11:22:23.623Z,2.80
2018-09-10T11:23:23.257Z,3.60
2018-09-10T11:24:23.139Z,3.20
2018-09-10T11:25:24.462Z,3.30
2018-09-10T11:26:23.151Z,3.50
2018-09-10T11:27:23.522Z,1.90
2018-09-10T11:28:25.001Z,3.30
2018-09-10T11:29:23.506Z,2.40
2018-09-10T11:30:23.809Z,5.30
2018-09-10T11:31:23.670Z,2.70
2018-09-10T11:32:24.426Z,3.30
2018-09-10T11:33:23.300Z,3.00
2018-09-10T11:34:23.629Z,3.10
2018-09-10T11:35:23.422Z,4.10
2018-09-10T11:36:23.294Z,3.10
2018-09-10T11:37:23.755Z,3.10
2018-09-10T11:38:23.665Z,3.30
2018-09-10T11:39:23.297Z,2.60
2018-09-10T11:40:23.397Z,1.60
2018-09-10T11:41:23.272Z,2.80
2018-09-10T11:42:23.320Z,2.90
2018-09-10T11:43:23.309Z,5.90
2018-09-10T11:44:23.277Z,2.40
2018-09-10T11:45:23.256Z,2.90
2018-09-10T11:46:23.438Z,1.80
2018-09-10T11:47:23.294Z,2.80
2018-09-10T11:48:23.295Z,5.40
2018-09-10T11:49:23.288Z,4.00
2018-09-10T11:50:23.310Z,2.20
2018-09-10T11:51:23.381Z,4.80
2018-09-10T11:52:23.349Z,3.10
2018-09-10T11:53:23.320Z,3.30
2018-09-10T11:54:23.298Z,2.30
2018-09-10T11:55:23.420Z,2.30
2018-09-10T11:56:23.330Z,1.80
2018-09-10T11:57:23.489Z,2.70
2018-09-10T11:58:23.394Z,3.30
2018-09-10T11:59:23.381Z,3.40
2018-09-10T12:00:23.385Z,1.60
2018-09-10T12:01:23.374Z,1.70
2018-09-10T12:02:23.621Z,2.10
2018-09-10T12:03:23.343Z,4.90
2018-09-10T12:04:23.403Z,2.70
2018-09-10T12:05:23.392Z,3.50
2018-09-10T12:06:23.375Z,2.90
2018-09-10T12:07:23.418Z,2.40
2018-09-10T12:08:23.528Z,2.60
2018-09-10T12:09:23.401Z,2.00
2018-09-10T12:10:23.431Z,2.50
2018-09-10T12:11:23.409Z,3.00
2018-09-10T12:12:23.445Z,3.60
2018-09-10T12:13:23.447Z,4.80
2018-09-10T12:14:23.537Z,1.60
2018-09-10T12:15:23.474Z,2.90
2018-09-10T12:16:23.481Z,3.00
2018-09-10T12:17:24.310Z,2.20
2018-09-10T12:18:23.682Z,5.10
2018-09-10T12:19:23.434Z,3.20
2018-09-10T12:20:23.437Z,4.10
2018-09-10T12:21:23.484Z,1.70
2018-09-10T12:22:23.449Z,1.80
2018-09-10T12:23:23.454Z,7.40
2018-09-10T12:24:23.455Z,2.50
2018-09-10T12:25:23.459Z,1.80
2018-09-10T12:26:23.466Z,2.50
2018-09-10T12:27:23.469Z,2.60
2018-09-10T12:28:23.477Z,3.00
2018-09-10T12:29:23.482Z,2.30
2018-09-10T12:30:23.487Z,3.30
2018-09-10T12:31:23.491Z,1.70
2018-09-10T12:32:23.554Z,2.60
2018-09-10T12:33:23.505Z,2.30
2018-09-10T12:34:23.509Z,3.10
2018-09-10T12:35:23.509Z,1.40
2018-09-10T12:36:23.518Z,3.10
2018-09-10T12:37:23.525Z,3.80
2018-09-10T12:38:23.527Z,1.60
2018-09-10T12:39:23.554Z,3.00
2018-09-10T12:40:23.536Z,1.30
2018-09-10T12:41:23.542Z,6.30
2018-09-10T12:42:23.547Z,5.70
2018-09-10T12:43:23.552Z,3.90
2018-09-10T12:44:23.558Z,3.20
2018-09-10T12:45:23.564Z,2.70
2018-09-10T12:46:23.573Z,2.10
2018-09-10T12:47:23.577Z,2.70
2018-09-10T12:48:23.581Z,1.70
2018-09-10T12:49:23.587Z,1.80
2018-09-10T12:50:23.596Z,4.40
2018-09-10T12:51:23.594Z,4.70
2018-09-10T12:52:23.600Z,2.20
2018-09-10T12:53:23.607Z,2.90
2018-09-10T12:54:23.612Z,2.90
2018-09-10T12:55:23.617Z,3.00
2018-09-10T12:56:23.632Z,2.90
2018-09-10T12:57:23.631Z,2.20
2018-09-10T12:58:23.633Z,2.00
2018-09-10T12:59:24.232Z,2.10
2018-09-10T13:00:23.644Z,1.30
2018-09-10T13:01:23.647Z,1.40
2018-09-10T13:02:23.660Z,4.50
2018-09-10T13:03:23.657Z,1.40
2018-09-10T13:04:23.663Z,2.80
2018-09-10T13:05:23.667Z,5.00
2018-09-10T13:06:23.673Z,2.00
2018-09-10T13:07:23.677Z,2.80
2018-09-10T13:08:23.682Z,5.50
2018-09-10T13:09:23.687Z,2.80
2018-09-10T13:10:23.694Z,2.60
2018-09-10T13:11:23.701Z,2.00
2018-09-10T13:12:24.319Z,4.00
2018-09-10T13:13:23.710Z,3.60
2018-09-10T13:14:23.716Z,8.90
2018-09-10T13:15:23.724Z,3.30
2018-09-10T13:16:23.766Z,3.10
2018-09-10T13:17:23.737Z,2.80
2018-09-10T13:18:23.736Z,1.60